This is the latest recevied weather packets stored in our database for station/object KK4PWJ-13. If no packets are shown the sender has not sent any weather packets the latest 1 day(s).
| Time | Temp. | Humidity | Pressure | Rain* | Wind** | Luminosity | Snow |
|---|---|---|---|---|---|---|---|
| 1778003872 | 27.22° C | 36% | 1014 hPa | 0 mm | 0.45 m/s, 177° | 815 W/m² | - |
| 1778003569 | 27.78° C | 33% | 1013.9 hPa | 0 mm | 0.89 m/s, 143° | 644 W/m² | - |
| 1778003265 | 27.78° C | 33% | 1014 hPa | 0 mm | 0 m/s | 751 W/m² | - |
| 1778002962 | 27.22° C | 33% | 1014.2 hPa | 0 mm | 0.45 m/s, 252° | 792 W/m² | - |
| 1778002658 | 27.22° C | 34% | 1013.9 hPa | 0 mm | 0 m/s | 808 W/m² | - |
| 1778002355 | 26.67° C | 36% | 1014 hPa | 0 mm | 0.45 m/s, 124° | 771 W/m² | - |
| 1778002052 | 26.67° C | 35% | 1014 hPa | 0 mm | 0.89 m/s, 103° | 846 W/m² | - |
| 1778001749 | 26.67° C | 36% | 1014 hPa | 0 mm | 0.45 m/s, 120° | 859 W/m² | - |
| 1778001449 | 26.67° C | 37% | 1014.1 hPa | 0 mm | 0 m/s | 877 W/m² | - |
| 1778001146 | 26.67° C | 34% | 1014.2 hPa | 0 mm | 0.89 m/s, 78° | 858 W/m² | - |
| 1778000843 | 26.67° C | 36% | 1014.1 hPa | 0 mm | 0.45 m/s, 130° | 941 W/m² | - |
| 1778000540 | 26.67° C | 34% | 1014.1 hPa | 0 mm | 0.45 m/s, 256° | 945 W/m² | - |
| 1778000235 | 26.67° C | 36% | 1014 hPa | 0 mm | 0.89 m/s, 137° | 935 W/m² | - |
| 1777999931 | 26.67° C | 37% | 1014.1 hPa | 0 mm | 0.45 m/s, 133° | 906 W/m² | - |
| 1777999627 | 26.67° C | 37% | 1014.2 hPa | 0 mm | 0.45 m/s, 156° | 940 W/m² | - |
| 1777999324 | 26.11° C | 38% | 1014.3 hPa | 0 mm | 0.45 m/s, 142° | 902 W/m² | - |
| 1777999022 | 25.56° C | 40% | 1014.4 hPa | 0 mm | 0.89 m/s, 165° | 916 W/m² | - |
| 1777998721 | 25.56° C | 39% | 1014.4 hPa | 0 mm | 0 m/s | 899 W/m² | - |
| 1777998418 | 25° C | 47% | 1014.5 hPa | 0 mm | 0 m/s | 885 W/m² | - |
| 1777998115 | 24.44° C | 44% | 1014.5 hPa | 0 mm | 0.45 m/s, 130° | 867 W/m² | - |
| 1777997811 | 24.44° C | 43% | 1014.6 hPa | 0 mm | 1.34 m/s, 79° | 892 W/m² | - |
| 1777997509 | 23.89° C | 43% | 1014.7 hPa | 0 mm | 0 m/s | 880 W/m² | - |
| 1777997207 | 23.89° C | 47% | 1014.9 hPa | 0 mm | 1.34 m/s, 158° | 794 W/m² | - |
| 1777996904 | 23.89° C | 45% | 1014.7 hPa | 0 mm | 0.89 m/s, 113° | 112 W/m² | - |
| 1777996600 | 23.33° C | 46% | 1014.7 hPa | 0 mm | 0 m/s | 87 W/m² | - |
* Rain latest hour (hover to see other rain measurements)
** Current wind speed in m/s (hover to see current wind gust speed)